• Join FlightAware (Why Join?)
  • Login
  • US Flag 
04:52AM EST


 

Airport Tracker/Info


-or-


 

Live Flight TrackerFlight Track Log ✈ DAL2078 ✈ 24-May-2012 ✈ KSAN - KSLC

Flight Track Log - Related Links

Times and Time Zones

All times are in EDT time to prevent confusion due to time zone crossing. See the DAL2078 flight status page for this flight to view local times or setup timezone preferences in your user account.

Time Position Orientation Groundspeed Altitude Reporting Facility
EDT Latitude Longitude Course Direction KTS MPH feet Rate Location/Type
07:47PM 32.7500 -117.2667 232° Southwest 221 254 2,200  Level Southern California TRACON
07:48PM 32.7167 -117.3167 139° Southeast 258 297 5,000 2,400 Climbing Southern California TRACON
07:49PM 32.6508 -117.2483 99° East 294 338 7,800 2,220 Climbing Los Angeles Center
07:50PM 32.6369 -117.1497 100° East 294 338 10,400 1,680 Climbing Los Angeles Center
07:51PM 32.6211 -117.0383 83° East 308 354 11,200 1,440 Climbing Los Angeles Center
07:53PM 32.6478 -116.7797 22° Northeast 377 434 14,800 1,740 Climbing Los Angeles Center
07:54PM 32.7525 -116.7286 16° North 344 396 16,500 1,800 Climbing Los Angeles Center
07:55PM 32.8653 -116.6900 18° North 374 430 18,500 1,740 Climbing Los Angeles Center
07:56PM 32.9803 -116.6461 17° North 400 460 20,000 1,500 Climbing Los Angeles Center
07:57PM 33.1100 -116.5997 30° Northeast 417 480 21,500 1,500 Climbing Los Angeles Center
07:58PM 33.2189 -116.5233 36° Northeast 438 504 23,100 1,440 Climbing Los Angeles Center
07:59PM 33.3256 -116.4294 37° Northeast 455 524 24,400 1,200 Climbing Los Angeles Center
08:00PM 33.4300 -116.3353 37° Northeast 460 529 25,600 1,140 Climbing Los Angeles Center
08:01PM 33.5386 -116.2383 35° Northeast 477 549 26,700 1,200 Climbing Los Angeles Center
08:02PM 33.6514 -116.1436 40° Northeast 488 562 28,000 1,260 Climbing Los Angeles Center
08:03PM 33.7536 -116.0386 47° Northeast 488 562 29,300 1,320 Climbing Los Angeles Center
08:04PM 33.8456 -115.9186 47° Northeast 482 555 30,700 840 Climbing Los Angeles Center
08:05PM 33.9369 -115.7983 36° Northeast 477 549 31,000 120 Climbing Los Angeles Center
08:06PM 34.0453 -115.7050 20° North 476 548 31,000  Level Los Angeles Center
08:07PM 34.1681 -115.6517 19° North 457 526 31,000 -60 Level Los Angeles Center
08:08PM 34.2933 -115.6008 19° North 457 526 30,900  Descending Los Angeles Center
08:09PM 34.4183 -115.5497 20° North 464 534 31,000  Climbing Los Angeles Center
08:10PM 34.5431 -115.4958 20° North 469 540 31,000  Level Los Angeles Center
08:11PM 34.6661 -115.4419 20° North 469 540 31,000  Level Los Angeles Center
08:12PM 34.7908 -115.3878 20° North 469 540 31,000  Level Los Angeles Center
08:13PM 34.9158 -115.3308 18° North 469 540 31,100  Climbing Los Angeles Center
08:14PM 35.0303 -115.2842 19° North 468 539 31,000 -60 Descending Los Angeles Center
08:15PM 35.1697 -115.2242 20° North 468 539 31,000  Level Los Angeles Center
08:16PM 35.2922 -115.1694 19° North 473 544 31,000  Level Los Angeles Center
08:17PM 35.4172 -115.1172 20° North 473 544 31,000  Level Los Angeles Center
08:18PM 35.5397 -115.0619 19° North 467 537 31,000  Level Los Angeles Center
08:19PM 35.6644 -115.0092 20° North 467 537 31,000  Level Los Angeles Center
08:20PM 35.7869 -114.9539 20° North 467 537 31,000  Level Los Angeles Center
08:21PM 35.9117 -114.8981 23° Northeast 467 537 31,000  Level Los Angeles Center
08:22PM 36.0361 -114.8319 31° Northeast 467 537 31,100  Climbing Los Angeles Center
08:23PM 36.1519 -114.7453 32° Northeast 473 544 31,000 -60 Descending Los Angeles Center
08:24PM 36.2658 -114.6583 32° Northeast 479 551 31,000  Level Los Angeles Center
08:25PM 36.3794 -114.5711 31° Northeast 479 551 31,000  Level Los Angeles Center
08:26PM 36.4931 -114.4864 31° Northeast 479 551 31,000  Level Los Angeles Center
08:27PM 36.6086 -114.3986 31° Northeast 479 551 31,000  Level Los Angeles Center
08:28PM 36.7242 -114.3106 31° Northeast 479 551 31,000  Level Los Angeles Center
08:29PM 36.8397 -114.2222 32° Northeast 479 551 31,000  Level Los Angeles Center
08:30PM 36.9550 -114.1311 31° Northeast 484 557 31,000  Level Los Angeles Center
08:31PM 37.0722 -114.0422 33° Northeast 489 563 31,000  Level Los Angeles Center
08:32PM 37.1931 -113.9450 32° Northeast 492 566 31,000  Level Salt Lake Center
08:33PM 37.3108 -113.8514 32° Northeast 491 565 31,000  Level Salt Lake Center
08:34PM 37.4300 -113.7567 32° Northeast 494 568 31,000  Level Salt Lake Center
08:35PM 37.5500 -113.6622 32° Northeast 497 572 31,000  Level Salt Lake Center
08:36PM 37.6711 -113.5675 32° Northeast 498 573 31,000  Level Salt Lake Center
08:37PM 37.7917 -113.4717 32° Northeast 500 575 31,000  Level Salt Lake Center
08:38PM 37.9133 -113.3750 32° Northeast 502 578 31,000  Level Salt Lake Center
08:39PM 38.0342 -113.2781 32° Northeast 502 578 31,100  Climbing Salt Lake Center
08:40PM 38.1547 -113.1806 32° Northeast 502 578 31,000 -60 Descending Salt Lake Center
08:41PM 38.2769 -113.0817 31° Northeast 507 583 31,000  Level Salt Lake Center
08:42PM 38.3997 -112.9881 21° North 505 581 31,000  Level Salt Lake Center
08:44PM 38.5306 -112.9225 22° Northeast 498 573 31,000  Level Salt Lake Center
08:45PM 38.6603 -112.8542 23° Northeast 494 568 31,000  Level Salt Lake Center
08:46PM 38.8158 -112.7692 22° Northeast 497 572 31,000  Level Salt Lake Center
08:47PM 38.9464 -112.7000 23° Northeast 498 573 31,000 -120 Level Salt Lake Center
08:48PM 39.0792 -112.6275 23° Northeast 505 581 30,800 -1,020 Descending Salt Lake Center
08:49PM 39.2094 -112.5550 23° Northeast 504 580 28,900 -2,040 Descending Salt Lake Center
08:50PM 39.3336 -112.4881 24° Northeast 492 566 26,600 -2,220 Descending Salt Lake Center
08:51PM 39.4528 -112.4206 25° Northeast 469 540 24,400 -2,520 Descending Salt Lake Center
08:52PM 39.5686 -112.3517 24° Northeast 459 528 21,400 -2,520 Descending Salt Lake Center
08:53PM 39.6811 -112.2869 22° Northeast 448 516 19,200 -1,920 Descending Salt Lake Center
08:55PM 39.8994 -112.1719 24° Northeast 362 417 15,600 -1,500 Descending Salt Lake Center
08:56PM 39.9861 -112.1206 25° Northeast 333 383 14,800 -1,020 Descending Salt Lake Center
08:57PM 40.0708 -112.0700 26° Northeast 333 383 13,600 -900 Descending Salt Lake Center
08:58PM 40.1511 -112.0178 28° Northeast 306 352 13,000 -840 Descending Salt Lake Center
08:59PM 40.2233 -111.9669 14° North 281 323 11,800 -1,020 Descending Salt Lake Center
09:00PM 40.2936 -111.9444 North 274 315 11,000 -480 Descending Salt Lake Center
09:01PM 40.3694 -111.9356 358° North 267 307 11,000 -240 Level Salt Lake Center
09:02PM 40.4433 -111.9389 355° North 268 308 10,600 -960 Descending Salt Lake Center
09:03PM 40.5161 -111.9481 356° North 260 299 9,100 -1,380 Descending Salt Lake Center
09:04PM 40.5886 -111.9544 355° North 260 299 7,800 -1,260 Descending Salt Lake Center
09:05PM 40.6569 -111.9622 356° North 209 241 6,500 -1,080 Descending Salt Lake Center
09:06PM 40.7094 -111.9669 354° North 189 217 5,500 -900 Descending Salt Lake Center
09:07PM 40.7514 -111.9725 358° North 155 178 4,700 -600 Descending Salt Lake Center
09:08PM 40.7958 -111.9750 358° North 147 169 4,200 -420 Descending Salt Lake Center